createdAt,value
2019-06-10T00:02:05.863Z,4.75
2019-06-10T00:07:11.825Z,5.03
2019-06-10T00:12:15.864Z,5.28
2019-06-10T00:17:21.408Z,5.62
2019-06-10T00:22:25.453Z,4.92
2019-06-10T00:27:31.172Z,4.62
2019-06-10T00:32:35.246Z,5.35
2019-06-10T00:37:39.023Z,4.85
2019-06-10T00:42:42.943Z,5.25
2019-06-10T00:47:46.712Z,5.35
2019-06-10T00:52:51.644Z,4.90
2019-06-10T00:57:55.506Z,5.37
2019-06-10T01:03:01.096Z,4.97
2019-06-10T01:08:06.589Z,5.62
2019-06-10T01:13:12.250Z,5.15
2019-06-10T01:18:34.134Z,5.58
2019-06-10T01:23:21.983Z,5.47
2019-06-10T01:28:25.712Z,5.75
2019-06-10T01:33:31.703Z,5.67
2019-06-10T01:38:35.263Z,5.40
2019-06-10T01:43:40.784Z,5.25
2019-06-10T01:48:48.131Z,5.62
2019-06-10T01:53:51.266Z,7.40
2019-06-10T01:58:55.448Z,5.25
2019-06-10T02:04:00.867Z,5.72
2019-06-10T02:09:06.550Z,6.05
2019-06-10T02:14:14.401Z,6.25
2019-06-10T02:19:17.465Z,5.78
2019-06-10T02:24:23.354Z,5.50
2019-06-10T02:29:27.360Z,5.95
2019-06-10T02:34:34.067Z,5.20
2019-06-10T02:39:38.962Z,6.50
2019-06-10T02:44:44.485Z,6.40
2019-06-10T02:49:59.023Z,6.30
2019-06-10T02:54:53.858Z,6.03
2019-06-10T02:59:57.660Z,5.92
2019-06-10T03:05:04.632Z,5.97
2019-06-10T03:10:07.255Z,7.97
2019-06-10T03:15:12.584Z,6.45
2019-06-10T03:20:17.832Z,6.25
2019-06-10T03:25:23.326Z,6.03
2019-06-10T03:30:41.201Z,5.85
2019-06-10T03:35:33.116Z,6.50
2019-06-10T03:40:36.881Z,6.40
2019-06-10T03:45:42.591Z,6.40
2019-06-10T03:50:46.637Z,6.28
2019-06-10T03:55:52.524Z,6.42
2019-06-10T04:00:55.964Z,6.85
2019-06-10T04:06:02.134Z,4.70
2019-06-10T04:11:05.423Z,6.00
2019-06-10T04:16:09.301Z,6.40
2019-06-10T04:21:13.152Z,5.72
2019-06-10T04:26:17.806Z,6.65
2019-06-10T04:31:23.742Z,7.05
2019-06-10T04:36:28.151Z,7.87
2019-06-10T04:41:32.760Z,7.80
2019-06-10T04:46:36.669Z,7.10
2019-06-10T04:51:40.589Z,7.03
2019-06-10T04:56:44.516Z,6.80
2019-06-10T05:01:48.288Z,5.85
2019-06-10T05:06:52.667Z,7.15
2019-06-10T05:11:56.574Z,6.47
2019-06-10T05:17:02.180Z,5.92
2019-06-10T05:22:06.112Z,6.08
2019-06-10T05:27:09.882Z,5.72
2019-06-10T05:32:13.676Z,6.78
2019-06-10T05:37:17.444Z,5.75
2019-06-10T05:42:24.596Z,5.75
2019-06-10T05:47:29.205Z,5.53
2019-06-10T05:52:33.822Z,5.83
2019-06-10T05:57:38.268Z,6.62
2019-06-10T06:02:43.266Z,6.65
2019-06-10T06:08:01.336Z,5.95
2019-06-10T06:12:52.966Z,4.87
2019-06-10T06:18:07.225Z,5.12
2019-06-10T06:23:02.772Z,5.05
2019-06-10T06:28:06.925Z,5.85
2019-06-10T06:33:13.345Z,5.37
2019-06-10T06:38:16.316Z,6.83
2019-06-10T06:43:22.092Z,5.97
2019-06-10T06:48:25.671Z,5.37
2019-06-10T06:53:35.285Z,5.95
2019-06-10T06:58:36.901Z,5.50
2019-06-10T07:03:44.646Z,5.53
2019-06-10T07:09:00.348Z,5.20
2019-06-10T07:13:54.909Z,5.22
2019-06-10T07:18:58.665Z,5.50
2019-06-10T07:24:03.217Z,4.87
2019-06-10T07:29:09.333Z,5.08
2019-06-10T07:34:13.249Z,5.00
2019-06-10T07:39:17.088Z,4.90
2019-06-10T07:44:22.627Z,4.50
2019-06-10T07:49:26.364Z,4.53
2019-06-10T07:54:30.206Z,5.33
2019-06-10T07:59:35.344Z,5.30
2019-06-10T08:04:39.988Z,6.53
2019-06-10T08:09:45.756Z,6.60
2019-06-10T08:14:49.767Z,6.58
2019-06-10T08:19:54.439Z,6.35
2019-06-10T08:24:58.257Z,5.90
2019-06-10T08:30:15.607Z,6.47
2019-06-10T08:35:08.498Z,6.95
2019-06-10T08:40:12.517Z,6.10
2019-06-10T08:45:16.576Z,6.05
2019-06-10T08:50:22.338Z,6.80
2019-06-10T08:55:26.510Z,6.50
2019-06-10T09:00:33.227Z,6.90
2019-06-10T09:05:38.762Z,5.47
2019-06-10T09:10:45.709Z,5.65
2019-06-10T09:16:06.000Z,6.08
2019-06-10T09:20:58.265Z,6.12
2019-06-10T09:26:03.586Z,5.83
2019-06-10T09:31:07.696Z,5.83
2019-06-10T09:36:12.527Z,6.03
2019-06-10T09:41:16.521Z,5.80
2019-06-10T09:46:23.278Z,5.67
2019-06-10T09:51:27.206Z,5.08
2019-06-10T09:56:33.119Z,6.42
2019-06-10T10:01:36.988Z,5.42
2019-06-10T10:06:44.811Z,5.50
2019-06-10T10:11:48.969Z,5.20
2019-06-10T10:16:59.825Z,6.12
2019-06-10T10:21:59.215Z,6.10
2019-06-10T10:27:08.369Z,5.37
2019-06-10T10:32:08.573Z,4.53
2019-06-10T10:37:12.614Z,4.30
2019-06-10T10:42:16.452Z,4.28
2019-06-10T10:47:20.236Z,5.03
2019-06-10T10:52:24.085Z,4.90
2019-06-10T10:57:28.281Z,4.37
2019-06-10T11:02:32.338Z,4.60
2019-06-10T11:07:38.681Z,3.90
2019-06-10T11:12:46.920Z,4.60
2019-06-10T11:17:54.911Z,3.52
2019-06-10T11:22:57.994Z,4.05
2019-06-10T11:28:04.019Z,3.72
2019-06-10T11:33:08.148Z,4.60
2019-06-10T11:38:12.836Z,3.52
2019-06-10T11:43:16.748Z,3.70
2019-06-10T11:48:20.676Z,4.28
2019-06-10T11:53:24.588Z,3.50
2019-06-10T11:58:28.563Z,3.50
2019-06-10T12:03:32.793Z,3.92
2019-06-10T12:08:36.995Z,3.87
2019-06-10T12:13:42.817Z,3.20
2019-06-10T12:18:46.735Z,3.17
2019-06-10T12:23:56.761Z,3.62
2019-06-10T12:28:59.336Z,3.80
2019-06-10T12:34:03.289Z,3.85
2019-06-10T12:39:10.911Z,3.65
2019-06-10T12:44:14.798Z,3.60
2019-06-10T12:49:18.808Z,3.47
2019-06-10T12:54:22.744Z,3.62
2019-06-10T12:59:27.127Z,3.25
2019-06-10T13:04:31.384Z,3.75
2019-06-10T13:09:43.311Z,3.33
2019-06-10T13:14:46.628Z,3.60
2019-06-10T13:19:50.483Z,3.83
2019-06-10T13:24:54.265Z,3.67
2019-06-10T13:29:58.327Z,3.70
2019-06-10T13:35:03.638Z,3.35
2019-06-10T13:40:12.334Z,3.17
2019-06-10T13:45:14.828Z,3.52
2019-06-10T13:50:22.149Z,3.75
2019-06-10T13:55:26.012Z,3.30
2019-06-10T14:00:40.825Z,2.90
2019-06-10T14:05:36.674Z,2.92
2019-06-10T14:10:42.895Z,3.30
2019-06-10T14:15:46.079Z,3.12
2019-06-10T14:20:52.826Z,3.00
2019-06-10T14:25:56.050Z,3.58
2019-06-10T14:31:02.677Z,3.47
2019-06-10T14:36:06.941Z,3.70
2019-06-10T14:41:12.203Z,3.02
2019-06-10T14:46:17.682Z,3.40
2019-06-10T14:51:22.949Z,3.47
2019-06-10T14:56:26.943Z,5.30
2019-06-10T15:01:32.200Z,11.38
2019-06-10T15:06:36.269Z,4.05
2019-06-10T15:11:42.650Z,2.95
2019-06-10T15:16:45.869Z,3.02
2019-06-10T15:21:49.647Z,3.58
2019-06-10T15:27:08.710Z,3.08
2019-06-10T15:32:10.509Z,3.10
2019-06-10T15:37:04.893Z,3.62
2019-06-10T15:42:09.468Z,3.45
2019-06-10T15:47:17.047Z,2.92
2019-06-10T15:52:20.657Z,3.17
2019-06-10T15:57:38.649Z,4.85
2019-06-10T16:02:30.385Z,4.75
2019-06-10T16:07:35.899Z,4.53
2019-06-10T16:12:39.997Z,8.80
2019-06-10T16:17:44.227Z,3.98
2019-06-10T16:22:48.440Z,5.40
2019-06-10T16:27:54.414Z,5.17
2019-06-10T16:32:57.755Z,7.12
2019-06-10T16:38:02.903Z,5.55
2019-06-10T16:43:06.744Z,4.50
2019-06-10T16:48:12.987Z,5.00
2019-06-10T16:53:45.269Z,4.05
2019-06-10T16:58:49.351Z,4.58
2019-06-10T17:03:53.181Z,4.60
2019-06-10T17:08:56.968Z,4.45
2019-06-10T17:14:03.107Z,3.92
2019-06-10T17:19:07.104Z,3.45
2019-06-10T17:24:12.789Z,4.28
2019-06-10T17:29:16.569Z,3.35
2019-06-10T17:34:22.977Z,4.00
2019-06-10T17:39:27.035Z,3.00
2019-06-10T17:44:32.492Z,3.55
2019-06-10T17:49:36.513Z,3.35
2019-06-10T17:54:40.406Z,3.02
2019-06-10T17:59:44.778Z,4.35
2019-06-10T18:04:48.562Z,4.08
2019-06-10T18:09:53.021Z,3.10
2019-06-10T18:14:57.090Z,4.20
2019-06-10T18:20:02.833Z,4.25
2019-06-10T18:25:08.304Z,4.12
2019-06-10T18:30:14.441Z,4.10
2019-06-10T18:35:19.480Z,4.03
2019-06-10T18:40:24.100Z,4.00
2019-06-10T18:45:29.718Z,4.72
2019-06-10T18:50:36.179Z,5.45
2019-06-10T18:55:40.755Z,6.20
2019-06-10T19:00:59.615Z,5.45
2019-06-10T19:05:52.799Z,4.97
2019-06-10T19:10:56.230Z,5.03
2019-06-10T19:16:02.211Z,6.28
2019-06-10T19:21:08.630Z,6.25
2019-06-10T19:26:13.395Z,5.50
2019-06-10T19:31:17.222Z,4.90
2019-06-10T19:36:23.015Z,4.53
2019-06-10T19:41:26.585Z,5.45
2019-06-10T19:46:32.423Z,5.40
2019-06-10T19:51:37.306Z,3.90
2019-06-10T19:56:41.685Z,4.30
2019-06-10T20:01:48.234Z,3.80
2019-06-10T20:06:53.788Z,4.80
2019-06-10T20:11:57.530Z,4.53
2019-06-10T20:17:03.171Z,5.15
2019-06-10T20:22:07.009Z,5.33
2019-06-10T20:27:10.776Z,4.40
2019-06-10T20:32:15.081Z,4.20
2019-06-10T20:37:18.871Z,4.60
2019-06-10T20:42:23.175Z,4.35
2019-06-10T20:47:27.022Z,4.42
2019-06-10T20:52:32.610Z,5.53
2019-06-10T20:57:49.938Z,4.92
2019-06-10T21:02:45.493Z,5.53
2019-06-10T21:07:51.745Z,8.65
2019-06-10T21:12:54.483Z,6.50
2019-06-10T21:17:58.346Z,4.70
2019-06-10T21:23:03.150Z,4.97
2019-06-10T21:28:07.665Z,3.92
2019-06-10T21:33:13.016Z,3.37
2019-06-10T21:38:16.779Z,3.67
2019-06-10T21:43:22.337Z,3.00
2019-06-10T21:48:26.307Z,3.30
2019-06-10T21:53:30.160Z,3.30
2019-06-10T21:58:33.933Z,3.12
2019-06-10T22:03:37.716Z,3.05
2019-06-10T22:08:42.521Z,4.10
2019-06-10T22:13:48.110Z,3.33
2019-06-10T22:18:52.921Z,4.53
2019-06-10T22:23:57.107Z,4.00
2019-06-10T22:29:01.348Z,3.83
2019-06-10T22:34:05.366Z,3.33
2019-06-10T22:39:12.357Z,2.90
2019-06-10T22:44:15.182Z,3.37
2019-06-10T22:49:18.978Z,3.62
2019-06-10T22:54:22.764Z,2.90
2019-06-10T22:59:26.559Z,3.60
2019-06-10T23:04:32.998Z,3.10
2019-06-10T23:09:35.917Z,3.40
2019-06-10T23:14:39.706Z,4.15
2019-06-10T23:19:43.536Z,3.10
2019-06-10T23:24:47.448Z,3.12
2019-06-10T23:29:54.003Z,3.10
2019-06-10T23:34:58.179Z,3.58
2019-06-10T23:40:04.462Z,2.90
2019-06-10T23:45:09.443Z,3.40
2019-06-10T23:50:13.468Z,2.90
2019-06-10T23:55:17.562Z,3.75
